Time;durP1;ratioP1;P1;durP2;ratioP2;P2;SDS_P1;SDS_P2;PMS_P1;PMS_P2;Temp;Humidity;BMP_temperature;BMP_pressure;BME280_temperature;BME280_humidity;BME280_pressure;Samples;Min_cycle;Max_cycle;Signal;HPM_P1;HPM_P2
2023/12/09 00:00:59;;;;;;;92.97;18.67;;;;;;;-0.11;100.00;101050.59;7398302;19;20549;-47
2023/12/09 00:03:29;;;;;;;83.72;19.50;;;;;;;-0.11;100.00;101058.19;7373400;19;20559;-46
2023/12/09 00:06:01;;;;;;;92.97;20.02;;;;;;;-0.17;100.00;101071.22;7398416;19;20223;-48
2023/12/09 00:08:31;;;;;;;67.40;20.60;;;;;;;-0.03;100.00;101085.13;7373236;19;20662;-48
2023/12/09 00:11:01;;;;;;;80.38;20.10;;;;;;;-0.11;100.00;101092.06;7399558;19;20147;-48
2023/12/09 00:13:30;;;;;;;73.00;19.90;;;;;;;-0.11;100.00;101097.13;7375351;19;20639;-47
2023/12/09 00:16:00;;;;;;;74.25;17.83;;;;;;;0.04;100.00;101104.34;7400475;19;20621;-46
2023/12/09 00:18:29;;;;;;;107.68;24.58;;;;;;;0.19;100.00;101108.25;7372522;19;20215;-48
2023/12/09 00:21:02;;;;;;;69.70;21.52;;;;;;;0.32;100.00;101120.41;7395184;19;20146;-49
2023/12/09 00:23:32;;;;;;;77.78;20.73;;;;;;;0.38;100.00;101115.88;7373098;19;20186;-50
2023/12/09 00:26:01;;;;;;;59.83;19.58;;;;;;;0.39;100.00;101117.66;7395074;19;20210;-47
2023/12/09 00:28:31;;;;;;;71.03;18.95;;;;;;;0.34;100.00;101121.41;7372928;19;20265;-48
2023/12/09 00:31:01;;;;;;;74.78;17.08;;;;;;;0.18;100.00;101143.63;7394014;19;20873;-47
2023/12/09 00:33:30;;;;;;;84.72;18.65;;;;;;;0.12;100.00;101146.53;7372940;19;20194;-48
2023/12/09 00:36:02;;;;;;;88.70;23.45;;;;;;;0.24;100.00;101142.56;7393622;19;20500;-47
2023/12/09 00:38:32;;;;;;;72.47;19.55;;;;;;;0.27;100.00;101144.47;7373663;19;20576;-48
2023/12/09 00:41:02;;;;;;;64.40;19.02;;;;;;;0.27;100.00;101141.94;7394192;19;20225;-47
2023/12/09 00:43:31;;;;;;;77.53;18.83;;;;;;;0.33;100.00;101141.59;7373247;19;20734;-48
2023/12/09 00:46:01;;;;;;;112.97;19.30;;;;;;;0.38;100.00;101143.78;7393633;19;20611;-47
2023/12/09 00:48:30;;;;;;;75.60;17.92;;;;;;;0.53;100.00;101136.63;7373200;19;20426;-47
2023/12/09 00:51:03;;;;;;;69.93;19.58;;;;;;;0.36;100.00;101132.59;7396184;19;20147;-49
2023/12/09 00:53:32;;;;;;;215.50;21.45;;;;;;;0.31;100.00;101132.94;7372307;19;20190;-48
2023/12/09 00:56:02;;;;;;;117.03;17.85;;;;;;;0.40;100.00;101138.81;7394483;19;20202;-47
2023/12/09 00:58:31;;;;;;;63.15;17.10;;;;;;;0.46;100.00;101151.19;7372225;19;20198;-50
2023/12/09 01:01:01;;;;;;;74.60;17.80;;;;;;;0.47;100.00;101145.34;7393140;19;20160;-48
2023/12/09 01:03:31;;;;;;;58.63;16.80;;;;;;;0.45;100.00;101154.50;7368604;19;20567;-49
2023/12/09 01:06:03;;;;;;;92.80;16.63;;;;;;;0.52;100.00;101154.28;7393470;19;20138;-46
2023/12/09 01:08:33;;;;;;;65.38;17.95;;;;;;;0.45;100.00;101151.97;7371134;19;20603;-46
2023/12/09 01:11:02;;;;;;;66.85;19.40;;;;;;;0.37;100.00;101149.59;7393512;19;20195;-48
2023/12/09 01:13:32;;;;;;;74.72;19.65;;;;;;;0.52;100.00;101156.81;7372004;19;20277;-47
2023/12/09 01:16:02;;;;;;;71.93;16.77;;;;;;;0.46;100.00;101159.69;7393551;19;20508;-47
2023/12/09 01:18:32;;;;;;;71.25;17.48;;;;;;;0.47;100.00;101164.00;7370942;19;20662;-47
2023/12/09 01:21:04;;;;;;;62.33;15.60;;;;;;;0.36;100.00;101154.56;7393493;19;20143;-47
2023/12/09 01:23:34;;;;;;;57.22;16.38;;;;;;;0.43;100.00;101163.59;7371634;19;20193;-44
2023/12/09 01:26:04;;;;;;;57.35;16.77;;;;;;;0.49;100.00;101159.97;7393340;19;20135;-45
2023/12/09 01:28:33;;;;;;;62.42;16.85;;;;;;;0.51;100.00;101157.59;7372745;19;20198;-45
2023/12/09 01:31:03;;;;;;;89.00;23.17;;;;;;;0.71;100.00;101158.44;7394399;19;20519;-47
2023/12/09 01:33:32;;;;;;;80.63;19.33;;;;;;;0.93;100.00;101168.84;7371718;19;20233;-47
2023/12/09 01:36:05;;;;;;;92.07;17.90;;;;;;;0.89;100.00;101177.84;7389608;19;20214;-46
2023/12/09 01:38:35;;;;;;;68.65;18.10;;;;;;;0.80;100.00;101171.94;7370292;19;20499;-46
2023/12/09 01:41:05;;;;;;;54.38;14.70;;;;;;;0.88;100.00;101168.41;7394031;19;20206;-46
2023/12/09 01:43:35;;;;;;;90.93;17.80;;;;;;;0.85;100.00;101168.16;7371359;19;20194;-47
2023/12/09 01:46:08;;;;;;;61.80;16.23;;;;;;;0.69;100.00;101157.41;7392791;19;21002;-47
2023/12/09 01:48:38;;;;;;;60.00;16.83;;;;;;;0.70;100.00;101155.00;7370991;19;20525;-46
2023/12/09 01:51:11;;;;;;;63.03;18.20;;;;;;;0.69;100.00;101144.69;7392676;19;20152;-46
2023/12/09 01:53:41;;;;;;;157.68;19.23;;;;;;;0.67;100.00;101145.47;7371338;19;20202;-48
2023/12/09 01:56:13;;;;;;;117.63;18.83;;;;;;;0.83;100.00;101140.84;7393157;19;20160;-49
2023/12/09 01:58:43;;;;;;;66.88;15.95;;;;;;;0.85;100.00;101139.31;7368417;19;20204;-48
2023/12/09 02:01:12;;;;;;;89.70;18.87;;;;;;;0.75;100.00;101123.28;7392590;19;20146;-48
2023/12/09 02:03:42;;;;;;;119.88;18.83;;;;;;;0.81;100.00;101130.53;7369090;19;20430;-47
2023/12/09 02:06:15;;;;;;;83.00;23.27;;;;;;;0.89;100.00;101126.13;7392719;19;20139;-48
2023/12/09 02:08:44;;;;;;;73.30;17.40;;;;;;;0.88;100.00;101125.22;7370773;19;20201;-47
2023/12/09 02:11:21;;;;;;;75.70;17.23;;;;;;;0.82;100.00;101114.53;7392363;19;20139;-47
2023/12/09 02:13:59;;;;;;;97.60;23.67;;;;;;;0.88;100.00;101109.97;7370546;19;20257;-47
2023/12/09 02:16:34;;;;;;;90.60;23.60;;;;;;;1.01;100.00;101106.84;7393238;19;20934;-48
2023/12/09 02:19:06;;;;;;;178.30;20.88;;;;;;;1.25;100.00;101106.28;7369694;19;20419;-47
2023/12/09 02:22:06;;;;;;;106.60;16.90;;;;;;;1.12;100.00;101105.22;7393681;19;20135;-48
2023/12/09 02:24:38;;;;;;;73.73;19.23;;;;;;;0.94;100.00;101090.16;7370068;19;20226;-49
2023/12/09 02:27:13;;;;;;;81.15;17.23;;;;;;;0.98;100.00;101090.44;7392529;19;20411;-48
2023/12/09 02:29:52;;;;;;;109.40;17.17;;;;;;;0.77;100.00;101092.94;7371257;19;20186;-48
2023/12/09 02:32:25;;;;;;;136.20;19.57;;;;;;;0.83;100.00;101096.00;7370105;19;20396;-49
2023/12/09 02:34:56;;;;;;;113.10;25.67;;;;;;;0.99;100.00;101094.78;7383338;19;20428;-48
2023/12/09 02:37:26;;;;;;;72.25;15.77;;;;;;;0.85;100.00;101096.13;7369421;19;20412;-50
2023/12/09 02:39:59;;;;;;;89.63;21.05;;;;;;;0.84;100.00;101096.88;7391099;19;20214;-48
2023/12/09 02:42:29;;;;;;;65.40;18.77;;;;;;;0.84;100.00;101105.41;7368682;19;20146;-47
2023/12/09 02:44:59;;;;;;;68.97;17.33;;;;;;;0.86;100.00;101105.53;7391051;19;20174;-47
2023/12/09 02:47:29;;;;;;;114.40;18.70;;;;;;;0.79;100.00;101101.56;7369343;19;20404;-46
2023/12/09 02:49:58;;;;;;;109.72;30.58;;;;;;;0.80;100.00;101103.34;7389933;19;20379;-46
2023/12/09 02:52:28;;;;;;;97.17;23.83;;;;;;;0.98;100.00;101109.16;7370615;19;20147;-47
2023/12/09 02:55:01;;;;;;;88.22;20.35;;;;;;;1.02;100.00;101107.75;7390711;19;20993;-48
2023/12/09 02:57:30;;;;;;;77.97;21.87;;;;;;;0.97;100.00;101119.16;7369144;19;20510;-46
2023/12/09 03:00:00;;;;;;;96.40;18.80;;;;;;;0.91;100.00;101112.78;7391018;19;21383;-46
2023/12/09 03:02:30;;;;;;;75.05;21.08;;;;;;;1.08;100.00;101121.88;7366658;19;20412;-47
2023/12/09 03:04:59;;;;;;;77.93;17.60;;;;;;;1.15;100.00;101128.38;7389583;19;20175;-46
2023/12/09 03:07:29;;;;;;;84.32;18.23;;;;;;;1.03;100.00;101118.03;7370571;19;20149;-48
2023/12/09 03:10:02;;;;;;;82.37;20.67;;;;;;;1.07;100.00;101134.44;7392166;19;20155;-46
2023/12/09 03:12:31;;;;;;;88.33;16.80;;;;;;;1.02;100.00;101130.63;7375606;19;20409;-47
2023/12/09 03:15:05;;;;;;;71.60;16.13;;;;;;;0.90;100.00;101126.25;7398572;19;20431;-47
2023/12/09 03:17:35;;;;;;;130.20;19.38;;;;;;;1.00;100.00;101122.88;7374417;19;20374;-45
2023/12/09 03:20:08;;;;;;;103.15;22.33;;;;;;;0.97;100.00;101129.34;7397017;19;20142;-46
2023/12/09 03:22:38;;;;;;;75.50;17.77;;;;;;;0.97;100.00;101126.78;7375126;19;20202;-44
2023/12/09 03:25:11;;;;;;;63.07;15.73;;;;;;;1.00;100.00;101127.94;7394035;19;20427;-46
2023/12/09 03:27:40;;;;;;;85.25;20.80;;;;;;;0.89;100.00;101127.03;7373983;19;20406;-45
2023/12/09 03:30:11;;;;;;;76.93;16.73;;;;;;;0.87;100.00;101125.97;7398231;19;20143;-46
2023/12/09 03:32:41;;;;;;;88.07;18.70;;;;;;;0.88;100.00;101134.50;7374748;19;20599;-46
2023/12/09 03:35:12;;;;;;;97.70;17.17;;;;;;;0.79;100.00;101135.50;7391992;19;20186;-45
2023/12/09 03:37:41;;;;;;;56.10;15.70;;;;;;;0.84;100.00;101133.34;7374358;19;20931;-44
2023/12/09 03:40:14;;;;;;;76.83;18.53;;;;;;;0.83;100.00;101135.75;7395375;19;20935;-46
2023/12/09 03:42:44;;;;;;;115.53;18.53;;;;;;;0.83;100.00;101131.56;7373749;19;20383;-44
2023/12/09 03:45:14;;;;;;;117.03;18.73;;;;;;;0.82;100.00;101131.44;7396575;19;20787;-47
2023/12/09 03:47:44;;;;;;;109.40;20.10;;;;;;;0.86;100.00;101139.44;7373396;19;20563;-43
2023/12/09 03:50:14;;;;;;;80.20;17.67;;;;;;;0.82;100.00;101139.94;7396291;19;20827;-43
2023/12/09 03:52:43;;;;;;;66.83;16.60;;;;;;;0.86;100.00;101136.91;7374768;19;20751;-43
2023/12/09 03:55:16;;;;;;;80.43;17.20;;;;;;;0.84;100.00;101133.34;7395262;19;20447;-45
2023/12/09 03:57:46;;;;;;;70.30;17.50;;;;;;;0.88;100.00;101132.84;7373459;19;20378;-43
2023/12/09 04:00:17;;;;;;;164.77;20.63;;;;;;;0.93;100.00;101134.13;7394790;19;20142;-47
2023/12/09 04:02:46;;;;;;;88.22;17.63;;;;;;;0.99;100.00;101130.34;7372043;19;20391;-43
2023/12/09 04:05:16;;;;;;;80.45;17.75;;;;;;;0.93;100.00;101129.06;7395071;19;20186;-42
2023/12/09 04:07:46;;;;;;;187.80;19.20;;;;;;;0.90;100.00;101128.81;7373504;19;20194;-43
2023/12/09 04:10:18;;;;;;;95.07;19.03;;;;;;;0.91;100.00;101128.03;7394265;19;20147;-46
2023/12/09 04:12:50;;;;;;;109.03;17.00;;;;;;;0.90;100.00;101122.81;7374016;19;20405;-44
2023/12/09 04:15:20;;;;;;;97.65;18.33;;;;;;;1.02;100.00;101128.09;7394851;19;20446;-42
2023/12/09 04:17:50;;;;;;;96.17;16.80;;;;;;;0.98;100.00;101128.56;7374322;19;20223;-44
2023/12/09 04:20:19;;;;;;;90.63;16.90;;;;;;;0.98;100.00;101128.56;7393805;19;20467;-41
2023/12/09 04:22:49;;;;;;;88.73;15.63;;;;;;;1.04;100.00;101126.56;7373424;19;20411;-42
2023/12/09 04:25:22;;;;;;;74.80;17.50;;;;;;;0.96;100.00;101130.09;7394923;19;20993;-42
2023/12/09 04:27:51;;;;;;;88.17;18.97;;;;;;;0.92;100.00;101136.56;7373703;19;20202;-41
2023/12/09 04:30:21;;;;;;;116.17;20.40;;;;;;;1.04;100.00;101132.50;7394339;19;20482;-42
2023/12/09 04:32:51;;;;;;;86.70;18.00;;;;;;;1.13;100.00;101126.47;7372914;19;20479;-41
2023/12/09 04:35:21;;;;;;;93.50;18.00;;;;;;;1.19;100.00;101120.22;7392761;19;20443;-42
2023/12/09 04:37:50;;;;;;;101.30;19.50;;;;;;;1.28;100.00;101121.78;7373767;19;20423;-43
2023/12/09 04:40:22;;;;;;;111.07;18.87;;;;;;;1.20;100.00;101122.03;7394099;19;20412;-42
2023/12/09 04:42:52;;;;;;;132.93;20.23;;;;;;;1.25;100.00;101122.44;7371238;19;20415;-42
2023/12/09 04:45:22;;;;;;;76.23;18.27;;;;;;;1.24;100.00;101119.75;7394679;19;20458;-42
2023/12/09 04:47:52;;;;;;;75.47;18.38;;;;;;;1.24;100.00;101119.75;7373024;19;20958;-44
2023/12/09 04:50:22;;;;;;;108.87;19.20;;;;;;;1.27;100.00;101128.53;7393817;19;20154;-42
2023/12/09 04:52:52;;;;;;;97.40;19.43;;;;;;;1.26;100.00;101128.38;7373139;19;20474;-41
2023/12/09 04:55:24;;;;;;;95.40;18.40;;;;;;;1.26;100.00;101136.00;7393525;19;20440;-42
2023/12/09 04:57:54;;;;;;;85.23;18.43;;;;;;;1.30;100.00;101130.44;7366337;19;20399;-41
2023/12/09 05:00:24;;;;;;;119.40;18.93;;;;;;;1.34;100.00;101123.19;7393585;19;20444;-41
2023/12/09 05:02:53;;;;;;;91.00;21.10;;;;;;;1.38;100.00;101134.50;7371105;19;20395;-41
2023/12/09 05:05:23;;;;;;;85.80;20.00;;;;;;;1.40;100.00;101138.09;7394037;19;20463;-42
2023/12/09 05:07:53;;;;;;;103.93;21.50;;;;;;;1.40;100.00;101137.19;7372367;19;20502;-43
2023/12/09 05:10:25;;;;;;;123.50;19.93;;;;;;;1.43;100.00;101133.25;7394933;19;21085;-41
2023/12/09 05:12:54;;;;;;;93.63;19.33;;;;;;;1.46;100.00;101127.53;7373666;19;20413;-41
2023/12/09 05:15:24;;;;;;;91.40;20.30;;;;;;;1.52;100.00;101132.25;7393707;19;20447;-42
2023/12/09 05:17:53;;;;;;;108.50;22.57;;;;;;;1.50;100.00;101121.06;7372201;19;20403;-41
2023/12/09 05:20:24;;;;;;;106.53;19.50;;;;;;;1.63;100.00;101112.81;7393034;19;20394;-43
2023/12/09 05:22:54;;;;;;;94.43;18.97;;;;;;;1.59;100.00;101109.13;7371504;19;20814;-42
2023/12/09 05:25:26;;;;;;;111.70;21.37;;;;;;;1.60;100.00;101100.72;7393697;19;20457;-43
2023/12/09 05:27:56;;;;;;;93.30;22.53;;;;;;;1.70;100.00;101093.06;7371952;19;20408;-41
2023/12/09 05:30:25;;;;;;;105.07;19.37;;;;;;;1.67;100.00;101092.84;7393834;19;20487;-41
2023/12/09 05:32:56;;;;;;;128.83;21.50;;;;;;;1.69;100.00;101076.03;7369623;19;20394;-45
2023/12/09 05:35:26;;;;;;;99.80;22.50;;;;;;;1.83;100.00;101073.75;7392558;19;20451;-43
2023/12/09 05:37:55;;;;;;;109.33;21.00;;;;;;;1.80;100.00;101076.91;7371826;19;20402;-42
2023/12/09 05:40:27;;;;;;;102.93;20.53;;;;;;;1.91;100.00;101057.47;7394206;19;20776;-41
2023/12/09 05:42:59;;;;;;;99.03;20.17;;;;;;;1.98;100.00;101047.00;7371482;19;20426;-40
2023/12/09 05:45:29;;;;;;;87.47;20.30;;;;;;;2.00;100.00;101044.59;7392663;19;20518;-40
2023/12/09 05:47:58;;;;;;;84.73;20.10;;;;;;;1.98;100.00;101039.38;7371316;19;20415;-43
2023/12/09 05:50:28;;;;;;;91.17;22.50;;;;;;;1.93;100.00;101035.56;7393016;19;20432;-41
2023/12/09 05:52:58;;;;;;;123.80;23.93;;;;;;;1.88;100.00;101040.28;7372084;19;20407;-41
2023/12/09 05:55:33;;;;;;;103.87;20.97;;;;;;;1.86;100.00;101048.56;7392517;19;20446;-41
2023/12/09 05:58:02;;;;;;;104.47;20.67;;;;;;;1.98;100.00;101043.56;7371063;19;20498;-40
2023/12/09 06:00:32;;;;;;;108.53;22.97;;;;;;;2.10;100.00;101033.50;7391776;19;21216;-42
2023/12/09 06:03:05;;;;;;;112.27;22.50;;;;;;;2.07;100.00;101034.13;7366247;19;20532;-41
2023/12/09 06:05:35;;;;;;;95.07;21.17;;;;;;;2.04;100.00;101033.00;7392186;19;20438;-42
2023/12/09 06:08:05;;;;;;;95.80;20.70;;;;;;;2.13;100.00;101033.72;7369114;19;20423;-41
2023/12/09 06:10:37;;;;;;;120.17;22.70;;;;;;;2.13;100.00;101027.00;7393198;19;21272;-41
2023/12/09 06:13:06;;;;;;;94.67;20.87;;;;;;;2.10;100.00;101039.47;7369546;19;20418;-42
2023/12/09 06:15:36;;;;;;;88.83;23.27;;;;;;;2.12;100.00;101044.69;7392467;19;20510;-40
2023/12/09 06:18:06;;;;;;;96.50;20.00;;;;;;;2.11;100.00;101045.47;7368970;19;21050;-40
2023/12/09 06:20:35;;;;;;;100.03;21.93;;;;;;;2.08;100.00;101055.38;7393588;19;20417;-41
2023/12/09 06:23:05;;;;;;;98.47;21.60;;;;;;;2.08;100.00;101056.28;7368654;19;20817;-40
2023/12/09 06:25:37;;;;;;;104.37;22.70;;;;;;;2.20;100.00;101053.81;7391884;19;20454;-41
2023/12/09 06:28:07;;;;;;;82.43;20.10;;;;;;;2.16;100.00;101050.13;7369361;19;20427;-41
2023/12/09 06:30:36;;;;;;;80.60;20.73;;;;;;;2.23;100.00;101046.44;7391205;19;21341;-40
2023/12/09 06:33:06;;;;;;;90.43;21.33;;;;;;;2.26;100.00;101046.66;7368337;19;20947;-42
2023/12/09 06:35:36;;;;;;;98.60;22.07;;;;;;;2.28;100.00;101046.81;7391682;19;20527;-41
2023/12/09 06:38:05;;;;;;;86.57;21.60;;;;;;;2.22;100.00;101046.31;7368443;19;20407;-42
2023/12/09 06:40:37;;;;;;;84.97;19.97;;;;;;;2.21;100.00;101050.50;7391032;19;20470;-39
2023/12/09 06:43:07;;;;;;;76.17;20.23;;;;;;;2.24;100.00;101047.31;7368343;19;20821;-41
2023/12/09 06:45:37;;;;;;;80.63;20.27;;;;;;;2.21;100.00;101047.09;7397476;19;20434;-40
2023/12/09 06:48:07;;;;;;;91.70;20.63;;;;;;;2.19;100.00;101054.59;7375082;19;20443;-41
2023/12/09 06:50:37;;;;;;;83.93;21.47;;;;;;;2.26;100.00;101051.75;7397212;19;20379;-41
2023/12/09 06:53:11;;;;;;;84.83;22.37;;;;;;;2.22;100.00;101054.84;7374895;19;20425;-41
2023/12/09 06:55:44;;;;;;;91.20;22.40;;;;;;;2.26;100.00;101051.75;7398105;19;20507;-41
2023/12/09 06:58:13;;;;;;;84.37;22.00;;;;;;;2.27;100.00;101048.44;7375006;19;20406;-42
2023/12/09 07:00:43;;;;;;;78.00;20.70;;;;;;;2.29;100.00;101041.84;7397213;19;20410;-40
2023/12/09 07:03:13;;;;;;;75.30;21.67;;;;;;;2.33;100.00;101042.06;7373568;19;20522;-42
2023/12/09 07:05:43;;;;;;;74.07;21.23;;;;;;;2.31;100.00;101034.34;7397840;19;20463;-41
2023/12/09 07:08:14;;;;;;;83.87;22.10;;;;;;;2.38;100.00;101039.13;7374386;19;20411;-41
2023/12/09 07:10:48;;;;;;;77.93;22.70;;;;;;;2.39;100.00;101028.19;7397037;19;20407;-41
2023/12/09 07:13:18;;;;;;;81.57;21.50;;;;;;;2.42;100.00;101043.69;7374723;19;20415;-42
2023/12/09 07:15:48;;;;;;;83.03;21.13;;;;;;;2.41;100.00;101038.50;7398428;19;20465;-43
2023/12/09 07:18:17;;;;;;;89.77;22.60;;;;;;;2.45;100.00;101034.53;7375283;19;20421;-41
2023/12/09 07:20:48;;;;;;;78.67;22.87;;;;;;;2.52;100.00;101029.16;7397008;19;20419;-41
2023/12/09 07:23:18;;;;;;;89.87;25.53;;;;;;;2.48;100.00;101030.56;7375921;19;20431;-40
2023/12/09 07:25:50;;;;;;;95.17;23.50;;;;;;;2.53;100.00;101036.00;7397246;19;20887;-41
2023/12/09 07:28:20;;;;;;;89.17;22.40;;;;;;;2.42;100.00;101042.81;7376037;19;20442;-39
2023/12/09 07:30:49;;;;;;;81.63;22.20;;;;;;;2.40;100.00;101039.25;7396372;19;20411;-40
2023/12/09 07:33:19;;;;;;;82.90;22.87;;;;;;;2.45;100.00;101042.16;7373130;19;20415;-42
2023/12/09 07:35:49;;;;;;;75.87;21.90;;;;;;;2.48;100.00;101038.22;7396886;19;20519;-41
2023/12/09 07:38:18;;;;;;;65.40;22.30;;;;;;;2.56;100.00;101036.25;7368113;19;20427;-40
2023/12/09 07:40:51;;;;;;;84.17;21.23;;;;;;;2.50;100.00;101036.66;7398910;19;20475;-41
2023/12/09 07:43:20;;;;;;;83.73;23.20;;;;;;;2.58;100.00;101026.19;7375355;19;20761;-40
2023/12/09 07:45:50;;;;;;;81.73;23.27;;;;;;;2.58;100.00;101021.09;7396219;19;20459;-40
2023/12/09 07:48:19;;;;;;;86.33;25.70;;;;;;;2.66;100.00;101020.03;7373950;19;20399;-41
2023/12/09 07:50:49;;;;;;;69.63;20.30;;;;;;;2.69;100.00;101013.53;7398617;19;20410;-40
2023/12/09 07:53:19;;;;;;;71.33;19.00;;;;;;;2.67;100.00;101011.63;7374238;19;20442;-40
2023/12/09 07:55:51;;;;;;;69.87;20.13;;;;;;;2.69;100.00;101012.63;7394856;19;20482;-40
2023/12/09 07:58:22;;;;;;;70.07;20.50;;;;;;;2.71;100.00;101005.97;7373091;19;20839;-39
2023/12/09 08:00:52;;;;;;;76.73;21.73;;;;;;;2.77;100.00;101009.00;7393003;19;20764;-41
2023/12/09 08:03:22;;;;;;;66.77;19.77;;;;;;;2.82;100.00;101002.59;7369882;19;20407;-41
2023/12/09 08:05:52;;;;;;;69.33;20.40;;;;;;;2.80;100.00;101011.81;7395986;19;20435;-42
2023/12/09 08:08:21;;;;;;;70.57;22.80;;;;;;;2.90;100.00;101003.19;7374007;19;20870;-40
2023/12/09 08:10:53;;;;;;;65.50;19.20;;;;;;;2.94;100.00;100996.69;7395738;19;20407;-41
2023/12/09 08:13:23;;;;;;;65.53;17.83;;;;;;;2.93;100.00;100992.34;7373139;19;20419;-41
2023/12/09 08:15:53;;;;;;;62.70;20.47;;;;;;;2.90;100.00;100997.19;7396136;19;20450;-41
2023/12/09 08:18:22;;;;;;;62.07;19.67;;;;;;;2.95;100.00;100991.69;7372255;19;20774;-40
2023/12/09 08:20:52;;;;;;;63.93;19.63;;;;;;;3.01;100.00;100996.38;7394594;19;20745;-40
2023/12/09 08:23:22;;;;;;;53.50;18.47;;;;;;;3.01;100.00;101001.47;7365238;19;20457;-41
2023/12/09 08:25:55;;;;;;;54.33;18.77;;;;;;;3.02;100.00;101005.78;7395804;19;20502;-42
2023/12/09 08:28:27;;;;;;;54.20;18.63;;;;;;;3.06;100.00;101005.25;7372098;19;20486;-41
2023/12/09 08:30:57;;;;;;;59.60;20.13;;;;;;;3.12;100.00;101003.94;7395771;19;20416;-41
2023/12/09 08:33:26;;;;;;;48.90;17.27;;;;;;;3.15;100.00;100999.06;7371661;19;20419;-41
2023/12/09 08:35:56;;;;;;;65.77;18.07;;;;;;;3.08;100.00;101003.69;7395805;19;20798;-40
2023/12/09 08:38:26;;;;;;;62.80;18.60;;;;;;;3.10;100.00;101007.28;7371934;19;20419;-41
2023/12/09 08:40:58;;;;;;;62.37;18.77;;;;;;;3.23;100.00;101013.31;7394773;19;20957;-40
2023/12/09 08:43:28;;;;;;;63.80;22.07;;;;;;;3.22;100.00;101009.84;7372727;19;20498;-41
2023/12/09 08:45:57;;;;;;;47.83;17.40;;;;;;;3.23;100.00;101011.63;7395537;19;20815;-40
2023/12/09 08:48:27;;;;;;;51.07;17.57;;;;;;;3.24;100.00;101020.19;7373162;19;20422;-41
2023/12/09 08:50:56;;;;;;;54.20;17.83;;;;;;;3.22;100.00;101020.06;7394685;19;20421;-42
2023/12/09 08:53:26;;;;;;;59.73;18.50;;;;;;;3.26;100.00;101017.72;7372049;19;20419;-41
2023/12/09 08:55:58;;;;;;;52.60;16.67;;;;;;;3.26;100.00;101016.06;7395639;19;20436;-40
2023/12/09 08:58:28;;;;;;;46.93;16.57;;;;;;;3.26;100.00;101008.44;7371754;19;20841;-39
2023/12/09 09:00:58;;;;;;;54.50;18.13;;;;;;;3.30;100.00;101004.44;7396663;19;20414;-42
2023/12/09 09:03:28;;;;;;;46.47;17.33;;;;;;;3.35;100.00;100998.91;7370186;19;20428;-39
2023/12/09 09:05:57;;;;;;;59.40;18.07;;;;;;;3.33;100.00;101008.09;7394594;19;20447;-40
2023/12/09 09:08:27;;;;;;;67.97;18.20;;;;;;;3.31;100.00;101012.22;7372787;19;20459;-41
2023/12/09 09:11:00;;;;;;;48.90;15.60;;;;;;;3.27;100.00;101004.22;7394410;19;20480;-40
2023/12/09 09:13:30;;;;;;;64.43;18.67;;;;;;;3.30;100.00;101007.91;7371628;19;20427;-42
2023/12/09 09:15:59;;;;;;;63.67;18.57;;;;;;;3.31;100.00;101007.13;7395173;19;20447;-40
2023/12/09 09:18:29;;;;;;;48.73;18.20;;;;;;;3.30;100.00;100995.13;7371034;19;20971;-40
2023/12/09 09:20:59;;;;;;;61.60;19.97;;;;;;;3.31;100.00;100990.91;7396269;19;20411;-40
2023/12/09 09:23:28;;;;;;;55.60;18.90;;;;;;;3.36;100.00;100985.41;7371618;19;20419;-39
2023/12/09 09:26:01;;;;;;;50.90;19.07;;;;;;;3.38;100.00;100976.19;7394330;19;20431;-40
2023/12/09 09:28:31;;;;;;;51.63;17.57;;;;;;;3.42;100.00;100976.41;7365241;19;20551;-41
2023/12/09 09:31:00;;;;;;;51.47;16.57;;;;;;;3.48;100.00;100966.66;7393578;19;20412;-41
2023/12/09 09:33:30;;;;;;;72.03;16.90;;;;;;;3.47;100.00;100972.53;7363925;19;20423;-41
2023/12/09 09:36:00;;;;;;;53.80;18.17;;;;;;;3.46;100.00;100960.56;7390866;19;20439;-39
2023/12/09 09:38:30;;;;;;;52.63;17.33;;;;;;;3.49;100.00;100955.69;7366320;19;20486;-41
2023/12/09 09:41:02;;;;;;;89.43;28.53;;;;;;;3.53;100.00;100952.56;7392422;19;20474;-40
2023/12/09 09:43:37;;;;;;;50.87;16.40;;;;;;;3.50;100.00;100947.25;7369928;19;20435;-42
2023/12/09 09:46:08;;;;;;;58.53;15.97;;;;;;;3.53;100.00;100939.81;7390905;19;20446;-41
2023/12/09 09:48:39;;;;;;;53.07;18.00;;;;;;;3.55;100.00;100940.84;7370006;19;20434;-41
2023/12/09 09:51:10;;;;;;;59.83;21.93;;;;;;;3.67;100.00;100925.50;7391549;19;20935;-40
2023/12/09 09:53:57;;;;;;;56.87;17.20;;;;;;;3.70;100.00;100917.19;7369821;19;20411;-42
2023/12/09 09:56:31;;;;;;;53.80;17.30;;;;;;;3.58;100.00;100892.56;7394854;19;20427;-40
2023/12/09 09:59:00;;;;;;;51.80;16.70;;;;;;;3.54;100.00;100888.00;7370541;19;20506;-39
2023/12/09 10:01:30;;;;;;;40.87;14.20;;;;;;;3.58;100.00;100874.69;7392014;19;20416;-40
2023/12/09 10:04:01;;;;;;;46.13;17.20;;;;;;;3.69;100.00;100874.59;7368941;19;20423;-41
2023/12/09 10:06:31;;;;;;;38.73;14.70;;;;;;;3.65;100.00;100861.59;7394245;19;20422;-39
2023/12/09 10:09:01;;;;;;;92.80;30.07;;;;;;;3.78;100.00;100854.81;7370322;19;20430;-41
2023/12/09 10:11:33;;;;;;;68.53;23.90;;;;;;;3.84;100.00;100842.47;7394017;19;20855;-40
2023/12/09 10:14:03;;;;;;;41.67;16.47;;;;;;;3.71;100.00;100829.63;7370384;19;20434;-40
2023/12/09 10:16:33;;;;;;;44.80;17.00;;;;;;;3.73;100.00;100817.88;7392484;19;20956;-42
2023/12/09 10:19:03;;;;;;;46.57;17.03;;;;;;;3.95;100.00;100804.06;7369042;19;20534;-41
2023/12/09 10:21:32;;;;;;;58.87;20.03;;;;;;;3.98;100.00;100794.03;7392467;19;20420;-41
2023/12/09 10:24:02;;;;;;;39.07;14.27;;;;;;;4.01;100.00;100774.72;7369562;19;20417;-42
2023/12/09 10:26:34;;;;;;;53.10;17.90;;;;;;;4.19;100.00;100764.00;7392873;19;20404;-39
2023/12/09 10:29:04;;;;;;;56.93;16.33;;;;;;;4.11;100.00;100750.69;7370183;19;20957;-40
2023/12/09 10:31:35;;;;;;;43.13;16.60;;;;;;;4.04;100.00;100728.97;7391926;19;20436;-40
2023/12/09 10:34:05;;;;;;;36.63;14.13;;;;;;;4.02;100.00;100704.13;7367387;19;20962;-40
2023/12/09 10:36:35;;;;;;;49.43;18.47;;;;;;;3.97;100.00;100690.16;7393069;19;20434;-40
2023/12/09 10:39:08;;;;;;;39.33;14.37;;;;;;;4.03;100.00;100685.47;7369292;19;20519;-40
2023/12/09 10:41:40;;;;;;;38.20;13.73;;;;;;;4.14;100.00;100668.28;7392101;19;20404;-39
2023/12/09 10:44:10;;;;;;;48.30;15.60;;;;;;;4.15;100.00;100668.41;7369117;19;20479;-42
2023/12/09 10:46:40;;;;;;;37.00;15.37;;;;;;;4.07;100.00;100656.81;7392758;19;20483;-39
2023/12/09 10:49:09;;;;;;;39.50;14.93;;;;;;;4.04;100.00;100637.06;7367943;19;20427;-39
2023/12/09 10:51:39;;;;;;;39.17;14.00;;;;;;;3.90;100.00;100623.38;7391420;19;20411;-39
2023/12/09 10:54:09;;;;;;;48.50;17.63;;;;;;;3.94;100.00;100592.94;7367923;19;20483;-40
2023/12/09 10:56:41;;;;;;;39.00;14.40;;;;;;;3.82;100.00;100578.59;7394011;19;20426;-40
2023/12/09 10:59:11;;;;;;;33.27;12.77;;;;;;;3.73;100.00;100557.53;7368266;19;20451;-39
2023/12/09 11:01:41;;;;;;;42.17;14.03;;;;;;;3.73;100.00;100542.22;7391034;19;20414;-40
2023/12/09 11:04:12;;;;;;;34.70;14.20;;;;;;;3.72;100.00;100540.47;7366740;19;20471;-40
2023/12/09 11:06:43;;;;;;;75.80;25.83;;;;;;;3.61;100.00;100521.91;7392014;19;20403;-39
2023/12/09 11:09:13;;;;;;;37.73;15.13;;;;;;;3.56;100.00;100498.66;7368777;19;20798;-41
2023/12/09 11:11:46;;;;;;;44.47;15.77;;;;;;;3.65;100.00;100503.47;7390948;19;20604;-41
2023/12/09 11:14:16;;;;;;;58.37;22.23;;;;;;;3.67;100.00;100486.59;7367183;19;20459;-43
2023/12/09 11:16:46;;;;;;;42.70;15.00;;;;;;;3.68;100.00;100478.13;7391538;19;20468;-40
2023/12/09 11:19:16;;;;;;;73.40;23.87;;;;;;;3.71;100.00;100482.56;7367979;19;20498;-41
2023/12/09 11:21:48;;;;;;;78.97;26.00;;;;;;;3.65;100.00;100473.72;7390849;19;20431;-40